»·PEaware :: N3867W KMRY-KSNS

N3867W :: KMRY-KSNS

FLIGHT INFORMATION

Flight Status: Arrived
Operator: Privately registered:
United States
More flights under this callsign
Pilot: Hilton Head Flyers (3548)
Aircraft: PIPER PA-32 SARATOGA
(PA32)
More flights by this aircraft type
Origin: KMRY Monterey Peninsula
United States
Destination: KSNS Salinas Mun
United States
More flights between these airports :: More routes between these airports
Route: +MRY4 SNS
File this flight plan on PilotEdge
Remarks: STUDENT
Altitude:
(Current/Filed)
7,000ft
Speed:
(Current/Filed)
120kts
Departed: 08-Aug-18 01:35 PM
Arrived: 08-Aug-18 02:02 PM
Distance/Time
Traveled:
12nm/0:26
Distance/Time
To Go:
Arrived

Flight Plot

Page will automatically refresh every two minutes.

Flight plan parsing failed; only flown route is shown


Map Options




Map Legend


Flown Route
Filed Route
Departure Airport
Arrival Airport
Navaid (VOR, NDB)
Fix

Horizontal Profiles

Position Reports

Time Latitude Longitude Heading Altitude Ground
Speed
08-Aug-18 13:13 36.589942 -121.856675 91 154ft 0kts
08-Aug-18 13:14 36.589942 -121.856675 91 154ft 0kts
08-Aug-18 13:15 36.589942 -121.856675 91 154ft 0kts
08-Aug-18 13:16 36.589942 -121.856675 91 154ft 0kts
08-Aug-18 13:17 36.589942 -121.856675 91 154ft 0kts
08-Aug-18 13:18 36.589942 -121.856675 91 154ft 0kts
08-Aug-18 13:19 36.589942 -121.856675 91 154ft 0kts
08-Aug-18 13:20 36.589942 -121.856675 91 154ft 0kts
08-Aug-18 13:21 36.589942 -121.856675 91 154ft 0kts
08-Aug-18 13:22 36.589942 -121.856675 91 154ft 0kts
08-Aug-18 13:23 36.589942 -121.856675 91 154ft 0kts
08-Aug-18 13:24 36.589942 -121.856675 91 154ft 0kts
08-Aug-18 13:25 36.589942 -121.856675 91 154ft 0kts
08-Aug-18 13:26 36.589942 -121.856675 91 154ft 0kts
08-Aug-18 13:27 36.589942 -121.856675 91 154ft 0kts
08-Aug-18 13:28 36.589822 -121.855571 113 158ft 10kts
08-Aug-18 13:29 36.588307 -121.850743 111 177ft 18kts
08-Aug-18 13:30 36.586104 -121.844613 114 203ft 17kts
08-Aug-18 13:31 36.584582 -121.840147 113 239ft 15kts
08-Aug-18 13:32 36.582878 -121.835847 94 244ft 17kts
08-Aug-18 13:33 36.582841 -121.835000 90 239ft 0kts
08-Aug-18 13:34 36.582841 -121.834972 91 239ft 0kts
08-Aug-18 13:35 36.583134 -121.833489 15 230ft 7kts
08-Aug-18 13:36 36.589710 -121.852260 289 685ft 101kts
08-Aug-18 13:37 36.604861 -121.878196 321 2179ft 79kts
08-Aug-18 13:38 36.624824 -121.892854 329 3375ft 88kts
08-Aug-18 13:39 36.647364 -121.905645 4 4518ft 95kts
08-Aug-18 13:40 36.665060 -121.882450 79 5541ft 105kts
08-Aug-18 13:41 36.666286 -121.846328 88 6577ft 105kts
08-Aug-18 13:42 36.669108 -121.809916 75 7067ft 122kts
08-Aug-18 13:43 36.698626 -121.789859 9 7059ft 140kts
08-Aug-18 13:44 36.735123 -121.805944 327 6983ft 128kts
08-Aug-18 13:45 36.755056 -121.843471 280 7000ft 133kts
08-Aug-18 13:46 36.759333 -121.889621 275 7055ft 133kts
08-Aug-18 13:47 36.765045 -121.935619 284 7145ft 128kts
08-Aug-18 13:48 36.783425 -121.968160 349 7154ft 144kts
08-Aug-18 13:49 36.815798 -121.940460 66 6114ft 154kts
08-Aug-18 13:50 36.838822 -121.897905 29 5174ft 151kts
08-Aug-18 13:51 36.865891 -121.868954 107 4670ft 136kts
08-Aug-18 13:52 36.842821 -121.837242 77 4343ft 110kts
08-Aug-18 13:53 36.837799 -121.805008 111 4155ft 91kts
08-Aug-18 13:54 36.832443 -121.776015 96 4025ft 88kts
08-Aug-18 13:55 36.829585 -121.746195 98 4247ft 99kts
08-Aug-18 13:56 36.813927 -121.721375 167 4157ft 111kts
08-Aug-18 13:57 36.786675 -121.704716 135 3275ft 109kts
08-Aug-18 13:58 36.763951 -121.682824 148 2447ft 105kts
08-Aug-18 13:59 36.740130 -121.665286 152 1748ft 92kts
08-Aug-18 14:00 36.718298 -121.648648 149 1275ft 97kts
08-Aug-18 14:01 36.695903 -121.631240 149 762ft 93kts
08-Aug-18 14:02 36.675133 -121.615213 147 281ft 82kts
08-Aug-18 14:03 36.662788 -121.606027 233 79ft 14kts
08-Aug-18 14:04 36.662578 -121.606471 246 77ft 0kts

Navigation Log

Ident Type
Flight plan parsing failed, navigation log unavailable